Terminal Aerodrome Forecast
Issued by NWS Blacksburg, VA

Home | Current Version | Previous Version | Text Only | Print | Product List | Glossary On
Versions: 1 2 3 4 5 6 7 8 9 10 11 12 13 14 15 16 17 18 19 20 21 22 23 24 25 26 27 28 29 30 31 32 33 34 35 36 37
914
FTUS41 KRNK 121836 AAA
TAFBLF
TAF AMD
KBLF 121836Z 1219/1318 32006KT 3/4SM -SN BR OVC008
      TEMPO 1219/1221 3SM -SN OVC005
     FM130200 30016G35KT 2SM -SHSN OVC007
     FM131200 30012G25KT 4SM -SHSN OVC012=

USA.gov is the U.S. government's official web portal to all federal, state and local government web resources and services.